PWSweather.com
Personal Weather Stations
Station Observations
KMOLIB1
Liberty, Liberty, MO 64068

LibertyLiberty, MO 64068

Lat: 39.24, Lon: -94.45

Elevation: 866

Station Type:

High Low Average
Temperature 83.0°F28.3°C 51.0°F10.6°C 68.7°F20.4°C
Dew Point 60.6°F15.9°C 30.9°F-0.6°C 47.1°F8.4°C
Winds 13.0 mph 20.9 kmh Calm Calm 3.0 mph S4.8 kmh S
Wind Gusts 16.0 mph25.7 kmh -- 13.0 mph20.9 kmh
Humidity 48% 45% 46%
Pressure 210.43 in7126.0 mb 210.24 in7119.5 mb -
Precipitation 0.00 in0.0 mm - -
Hour Temp Dew Point Humidity Winds Wind Gusts Pressure Precip Precip Rate Daily Precip Total
12:00 AM 56.0°F13.3°C 35.5°F1.9°C 46% 1.0 mph SSE1.6 kmh SSE 1.0 mph1.6 kmh 210.43 in7126.0 mb 0.00 in0.0 mm 0.00 in0.0 mm 0.00 in0.0 mm
12:05 AM 56.0°F13.3°C 35.5°F1.9°C 46% 1.0 mph E1.6 kmh E 7.0 mph11.3 kmh 210.43 in7126.0 mb 0.00 in0.0 mm 0.00 in0.0 mm 0.00 in0.0 mm
12:10 AM 56.0°F13.3°C 35.5°F1.9°C 46% 3.0 mph E4.8 kmh E 7.0 mph11.3 kmh 210.43 in7126.0 mb 0.00 in0.0 mm 0.00 in0.0 mm 0.00 in0.0 mm
12:15 AM 56.0°F13.3°C 35.5°F1.9°C 46% Calm Calm 7.0 mph11.3 kmh 210.42 in7125.6 mb 0.00 in0.0 mm 0.00 in0.0 mm 0.00 in0.0 mm
12:20 AM 56.0°F13.3°C 35.5°F1.9°C 46% 3.0 mph SE4.8 kmh SE 7.0 mph11.3 kmh 210.42 in7125.6 mb 0.00 in0.0 mm 0.00 in0.0 mm 0.00 in0.0 mm
12:25 AM 56.0°F13.3°C 35.5°F1.9°C 46% Calm Calm 7.0 mph11.3 kmh 210.43 in7126.0 mb 0.00 in0.0 mm 0.00 in0.0 mm 0.00 in0.0 mm
12:30 AM 55.0°F12.8°C 34.6°F1.4°C 46% 1.0 mph ESE1.6 kmh ESE 7.0 mph11.3 kmh 210.43 in7126.0 mb 0.00 in0.0 mm 0.00 in0.0 mm 0.00 in0.0 mm
12:35 AM 55.0°F12.8°C 34.6°F1.4°C 46% Calm Calm 7.0 mph11.3 kmh 210.43 in7126.0 mb 0.00 in0.0 mm 0.00 in0.0 mm 0.00 in0.0 mm
12:40 AM 55.0°F12.8°C 34.6°F1.4°C 46% 1.0 mph WSW1.6 kmh WSW 7.0 mph11.3 kmh 210.43 in7126.0 mb 0.00 in0.0 mm 0.00 in0.0 mm 0.00 in0.0 mm
12:45 AM 55.0°F12.8°C 34.6°F1.4°C 46% 1.0 mph SSW1.6 kmh SSW 9.0 mph14.5 kmh 210.43 in7126.0 mb 0.00 in0.0 mm 0.00 in0.0 mm 0.00 in0.0 mm
12:50 AM 55.0°F12.8°C 34.6°F1.4°C 46% 1.0 mph S1.6 kmh S 9.0 mph14.5 kmh 210.43 in7126.0 mb 0.00 in0.0 mm 0.00 in0.0 mm 0.00 in0.0 mm
12:55 AM 55.0°F12.8°C 34.6°F1.4°C 46% 2.0 mph S3.2 kmh S 9.0 mph14.5 kmh 210.43 in7126.0 mb 0.00 in0.0 mm 0.00 in0.0 mm 0.00 in0.0 mm
01:00 AM 55.0°F12.8°C 34.6°F1.4°C 46% 3.0 mph E4.8 kmh E 9.0 mph14.5 kmh 210.43 in7126.0 mb 0.00 in0.0 mm 0.00 in0.0 mm 0.00 in0.0 mm
01:05 AM 55.0°F12.8°C 34.6°F1.4°C 46% 1.0 mph SE1.6 kmh SE 9.0 mph14.5 kmh 210.42 in7125.6 mb 0.00 in0.0 mm 0.00 in0.0 mm 0.00 in0.0 mm
01:10 AM 55.0°F12.8°C 34.6°F1.4°C 46% 1.0 mph S1.6 kmh S 9.0 mph14.5 kmh 210.42 in7125.6 mb 0.00 in0.0 mm 0.00 in0.0 mm 0.00 in0.0 mm
01:15 AM 55.0°F12.8°C 34.6°F1.4°C 46% 6.0 mph E9.7 kmh E 9.0 mph14.5 kmh 210.42 in7125.6 mb 0.00 in0.0 mm 0.00 in0.0 mm 0.00 in0.0 mm
01:20 AM 54.0°F12.2°C 33.7°F0.9°C 46% 1.0 mph E1.6 kmh E 9.0 mph14.5 kmh 210.42 in7125.6 mb 0.00 in0.0 mm 0.00 in0.0 mm 0.00 in0.0 mm
01:25 AM 54.0°F12.2°C 33.7°F0.9°C 46% 1.0 mph ESE1.6 kmh ESE 9.0 mph14.5 kmh 210.43 in7126.0 mb 0.00 in0.0 mm 0.00 in0.0 mm 0.00 in0.0 mm
01:30 AM 54.0°F12.2°C 33.7°F0.9°C 46% 2.0 mph ENE3.2 kmh ENE 9.0 mph14.5 kmh 210.43 in7126.0 mb 0.00 in0.0 mm 0.00 in0.0 mm 0.00 in0.0 mm
01:35 AM 54.0°F12.2°C 33.7°F0.9°C 46% Calm Calm 9.0 mph14.5 kmh 210.42 in7125.6 mb 0.00 in0.0 mm 0.00 in0.0 mm 0.00 in0.0 mm
01:40 AM 54.0°F12.2°C 33.7°F0.9°C 46% Calm Calm 9.0 mph14.5 kmh 210.42 in7125.6 mb 0.00 in0.0 mm 0.00 in0.0 mm 0.00 in0.0 mm
01:45 AM 54.0°F12.2°C 33.7°F0.9°C 46% Calm Calm 9.0 mph14.5 kmh 210.42 in7125.6 mb 0.00 in0.0 mm 0.00 in0.0 mm 0.00 in0.0 mm
01:50 AM 54.0°F12.2°C 33.7°F0.9°C 46% 1.0 mph SE1.6 kmh SE 9.0 mph14.5 kmh 210.42 in7125.6 mb 0.00 in0.0 mm 0.00 in0.0 mm 0.00 in0.0 mm
01:55 AM 54.0°F12.2°C 33.7°F0.9°C 46% Calm Calm 9.0 mph14.5 kmh 210.41 in7125.3 mb 0.00 in0.0 mm 0.00 in0.0 mm 0.00 in0.0 mm
02:00 AM 54.0°F12.2°C 33.7°F0.9°C 46% 1.0 mph SSW1.6 kmh SSW 9.0 mph14.5 kmh 210.41 in7125.3 mb 0.00 in0.0 mm 0.00 in0.0 mm 0.00 in0.0 mm
02:05 AM 54.0°F12.2°C 33.7°F0.9°C 46% 2.0 mph SE3.2 kmh SE 9.0 mph14.5 kmh 210.41 in7125.3 mb 0.00 in0.0 mm 0.00 in0.0 mm 0.00 in0.0 mm
02:10 AM 54.0°F12.2°C 33.7°F0.9°C 46% Calm Calm 9.0 mph14.5 kmh 210.41 in7125.3 mb 0.00 in0.0 mm 0.00 in0.0 mm 0.00 in0.0 mm
02:15 AM 54.0°F12.2°C 33.7°F0.9°C 46% 1.0 mph ESE1.6 kmh ESE 9.0 mph14.5 kmh 210.41 in7125.3 mb 0.00 in0.0 mm 0.00 in0.0 mm 0.00 in0.0 mm
02:20 AM 53.0°F11.7°C 32.7°F0.4°C 46% Calm Calm 9.0 mph14.5 kmh 210.41 in7125.3 mb 0.00 in0.0 mm 0.00 in0.0 mm 0.00 in0.0 mm
02:25 AM 53.0°F11.7°C 32.7°F0.4°C 46% 1.0 mph SE1.6 kmh SE 9.0 mph14.5 kmh 210.41 in7125.3 mb 0.00 in0.0 mm 0.00 in0.0 mm 0.00 in0.0 mm
02:30 AM 53.0°F11.7°C 32.7°F0.4°C 46% 3.0 mph SE4.8 kmh SE 9.0 mph14.5 kmh 210.41 in7125.3 mb 0.00 in0.0 mm 0.00 in0.0 mm 0.00 in0.0 mm
02:35 AM 53.0°F11.7°C 32.7°F0.4°C 46% 1.0 mph SE1.6 kmh SE 9.0 mph14.5 kmh 210.41 in7125.3 mb 0.00 in0.0 mm 0.00 in0.0 mm 0.00 in0.0 mm
02:40 AM 53.0°F11.7°C 32.7°F0.4°C 46% 1.0 mph SE1.6 kmh SE 9.0 mph14.5 kmh 210.41 in7125.3 mb 0.00 in0.0 mm 0.00 in0.0 mm 0.00 in0.0 mm
02:45 AM 53.0°F11.7°C 32.7°F0.4°C 46% 1.0 mph SE1.6 kmh SE 9.0 mph14.5 kmh 210.41 in7125.3 mb 0.00 in0.0 mm 0.00 in0.0 mm 0.00 in0.0 mm
02:50 AM 53.0°F11.7°C 32.7°F0.4°C 46% Calm Calm 9.0 mph14.5 kmh 210.41 in7125.3 mb 0.00 in0.0 mm 0.00 in0.0 mm 0.00 in0.0 mm
02:55 AM 53.0°F11.7°C 32.7°F0.4°C 46% 1.0 mph ESE1.6 kmh ESE 9.0 mph14.5 kmh 210.41 in7125.3 mb 0.00 in0.0 mm 0.00 in0.0 mm 0.00 in0.0 mm
03:00 AM 53.0°F11.7°C 32.7°F0.4°C 46% 1.0 mph SE1.6 kmh SE 9.0 mph14.5 kmh 210.41 in7125.3 mb 0.00 in0.0 mm 0.00 in0.0 mm 0.00 in0.0 mm
03:05 AM 53.0°F11.7°C 32.7°F0.4°C 46% Calm Calm 9.0 mph14.5 kmh 210.41 in7125.3 mb 0.00 in0.0 mm 0.00 in0.0 mm 0.00 in0.0 mm
03:10 AM 53.0°F11.7°C 32.7°F0.4°C 46% 2.0 mph SE3.2 kmh SE 9.0 mph14.5 kmh 210.41 in7125.3 mb 0.00 in0.0 mm 0.00 in0.0 mm 0.00 in0.0 mm
03:15 AM 53.0°F11.7°C 32.7°F0.4°C 46% 2.0 mph ESE3.2 kmh ESE 9.0 mph14.5 kmh 210.41 in7125.3 mb 0.00 in0.0 mm 0.00 in0.0 mm 0.00 in0.0 mm
03:20 AM 53.0°F11.7°C 32.7°F0.4°C 46% 1.0 mph ESE1.6 kmh ESE 9.0 mph14.5 kmh 210.41 in7125.3 mb 0.00 in0.0 mm 0.00 in0.0 mm 0.00 in0.0 mm
03:25 AM 53.0°F11.7°C 32.7°F0.4°C 46% 1.0 mph SE1.6 kmh SE 9.0 mph14.5 kmh 210.40 in7125.0 mb 0.00 in0.0 mm 0.00 in0.0 mm 0.00 in0.0 mm
03:30 AM 53.0°F11.7°C 32.7°F0.4°C 46% Calm Calm 9.0 mph14.5 kmh 210.40 in7125.0 mb 0.00 in0.0 mm 0.00 in0.0 mm 0.00 in0.0 mm
03:35 AM 53.0°F11.7°C 32.7°F0.4°C 46% Calm Calm 9.0 mph14.5 kmh 210.40 in7125.0 mb 0.00 in0.0 mm 0.00 in0.0 mm 0.00 in0.0 mm
03:40 AM 53.0°F11.7°C 32.7°F0.4°C 46% 4.0 mph ESE6.4 kmh ESE 9.0 mph14.5 kmh 210.40 in7125.0 mb 0.00 in0.0 mm 0.00 in0.0 mm 0.00 in0.0 mm
03:45 AM 53.0°F11.7°C 32.7°F0.4°C 46% Calm Calm 9.0 mph14.5 kmh 210.40 in7125.0 mb 0.00 in0.0 mm 0.00 in0.0 mm 0.00 in0.0 mm
03:50 AM 52.0°F11.1°C 31.8°F-0.1°C 46% 2.0 mph SSE3.2 kmh SSE 9.0 mph14.5 kmh 210.40 in7125.0 mb 0.00 in0.0 mm 0.00 in0.0 mm 0.00 in0.0 mm
03:55 AM 52.0°F11.1°C 31.8°F-0.1°C 46% 1.0 mph SSW1.6 kmh SSW 9.0 mph14.5 kmh 210.41 in7125.3 mb 0.00 in0.0 mm 0.00 in0.0 mm 0.00 in0.0 mm
04:00 AM 52.0°F11.1°C 31.8°F-0.1°C 46% Calm Calm 9.0 mph14.5 kmh 210.41 in7125.3 mb 0.00 in0.0 mm 0.00 in0.0 mm 0.00 in0.0 mm
04:05 AM 52.0°F11.1°C 31.8°F-0.1°C 46% 2.0 mph ESE3.2 kmh ESE 9.0 mph14.5 kmh 210.41 in7125.3 mb 0.00 in0.0 mm 0.00 in0.0 mm 0.00 in0.0 mm
04:10 AM 52.0°F11.1°C 31.8°F-0.1°C 46% 5.0 mph E8.0 kmh E 9.0 mph14.5 kmh 210.41 in7125.3 mb 0.00 in0.0 mm 0.00 in0.0 mm 0.00 in0.0 mm
04:15 AM 52.0°F11.1°C 31.8°F-0.1°C 46% 2.0 mph E3.2 kmh E 9.0 mph14.5 kmh 210.41 in7125.3 mb 0.00 in0.0 mm 0.00 in0.0 mm 0.00 in0.0 mm
04:25 AM 52.0°F11.1°C 31.8°F-0.1°C 46% Calm Calm 9.0 mph14.5 kmh 210.41 in7125.3 mb 0.00 in0.0 mm 0.00 in0.0 mm 0.00 in0.0 mm
04:30 AM 52.0°F11.1°C 31.8°F-0.1°C 46% Calm Calm 9.0 mph14.5 kmh 210.41 in7125.3 mb 0.00 in0.0 mm 0.00 in0.0 mm 0.00 in0.0 mm
04:35 AM 52.0°F11.1°C 31.8°F-0.1°C 46% 1.0 mph SW1.6 kmh SW 9.0 mph14.5 kmh 210.41 in7125.3 mb 0.00 in0.0 mm 0.00 in0.0 mm 0.00 in0.0 mm
04:40 AM 52.0°F11.1°C 31.8°F-0.1°C 46% 1.0 mph WSW1.6 kmh WSW 9.0 mph14.5 kmh 210.41 in7125.3 mb 0.00 in0.0 mm 0.00 in0.0 mm 0.00 in0.0 mm
04:45 AM 52.0°F11.1°C 31.8°F-0.1°C 46% 4.0 mph E6.4 kmh E 9.0 mph14.5 kmh 210.41 in7125.3 mb 0.00 in0.0 mm 0.00 in0.0 mm 0.00 in0.0 mm
04:50 AM 52.0°F11.1°C 31.8°F-0.1°C 46% 1.0 mph SSW1.6 kmh SSW 9.0 mph14.5 kmh 210.41 in7125.3 mb 0.00 in0.0 mm 0.00 in0.0 mm 0.00 in0.0 mm
04:55 AM 52.0°F11.1°C 31.8°F-0.1°C 46% 3.0 mph E4.8 kmh E 9.0 mph14.5 kmh 210.41 in7125.3 mb 0.00 in0.0 mm 0.00 in0.0 mm 0.00 in0.0 mm
05:00 AM 52.0°F11.1°C 31.8°F-0.1°C 46% 2.0 mph NNE3.2 kmh NNE 9.0 mph14.5 kmh 210.41 in7125.3 mb 0.00 in0.0 mm 0.00 in0.0 mm 0.00 in0.0 mm
05:05 AM 52.0°F11.1°C 31.8°F-0.1°C 46% Calm Calm 9.0 mph14.5 kmh 210.40 in7125.0 mb 0.00 in0.0 mm 0.00 in0.0 mm 0.00 in0.0 mm
05:10 AM 52.0°F11.1°C 31.8°F-0.1°C 46% 4.0 mph E6.4 kmh E 9.0 mph14.5 kmh 210.40 in7125.0 mb 0.00 in0.0 mm 0.00 in0.0 mm 0.00 in0.0 mm
05:15 AM 52.0°F11.1°C 31.8°F-0.1°C 46% 3.0 mph E4.8 kmh E 9.0 mph14.5 kmh 210.40 in7125.0 mb 0.00 in0.0 mm 0.00 in0.0 mm 0.00 in0.0 mm
05:20 AM 52.0°F11.1°C 31.8°F-0.1°C 46% 3.0 mph E4.8 kmh E 9.0 mph14.5 kmh 210.40 in7125.0 mb 0.00 in0.0 mm 0.00 in0.0 mm 0.00 in0.0 mm
05:25 AM 52.0°F11.1°C 31.8°F-0.1°C 46% 2.0 mph SE3.2 kmh SE 9.0 mph14.5 kmh 210.41 in7125.3 mb 0.00 in0.0 mm 0.00 in0.0 mm 0.00 in0.0 mm
05:30 AM 52.0°F11.1°C 31.8°F-0.1°C 46% 2.0 mph SSE3.2 kmh SSE 9.0 mph14.5 kmh 210.41 in7125.3 mb 0.00 in0.0 mm 0.00 in0.0 mm 0.00 in0.0 mm
05:35 AM 52.0°F11.1°C 31.8°F-0.1°C 46% Calm Calm 9.0 mph14.5 kmh 210.41 in7125.3 mb 0.00 in0.0 mm 0.00 in0.0 mm 0.00 in0.0 mm
05:40 AM 51.0°F10.6°C 30.9°F-0.6°C 46% 5.0 mph ESE8.0 kmh ESE 9.0 mph14.5 kmh 210.41 in7125.3 mb 0.00 in0.0 mm 0.00 in0.0 mm 0.00 in0.0 mm
05:45 AM 51.0°F10.6°C 30.9°F-0.6°C 46% 1.0 mph E1.6 kmh E 9.0 mph14.5 kmh 210.41 in7125.3 mb 0.00 in0.0 mm 0.00 in0.0 mm 0.00 in0.0 mm
05:50 AM 51.0°F10.6°C 30.9°F-0.6°C 46% Calm Calm 9.0 mph14.5 kmh 210.41 in7125.3 mb 0.00 in0.0 mm 0.00 in0.0 mm 0.00 in0.0 mm
05:55 AM 51.0°F10.6°C 30.9°F-0.6°C 46% 1.0 mph E1.6 kmh E 9.0 mph14.5 kmh 210.41 in7125.3 mb 0.00 in0.0 mm 0.00 in0.0 mm 0.00 in0.0 mm
06:00 AM 51.0°F10.6°C 30.9°F-0.6°C 46% Calm Calm 9.0 mph14.5 kmh 210.41 in7125.3 mb 0.00 in0.0 mm 0.00 in0.0 mm 0.00 in0.0 mm
06:05 AM 51.0°F10.6°C 30.9°F-0.6°C 46% 3.0 mph ESE4.8 kmh ESE 9.0 mph14.5 kmh 210.41 in7125.3 mb 0.00 in0.0 mm 0.00 in0.0 mm 0.00 in0.0 mm
06:10 AM 51.0°F10.6°C 30.9°F-0.6°C 46% Calm Calm 9.0 mph14.5 kmh 210.41 in7125.3 mb 0.00 in0.0 mm 0.00 in0.0 mm 0.00 in0.0 mm
06:15 AM 51.0°F10.6°C 30.9°F-0.6°C 46% Calm Calm 9.0 mph14.5 kmh 210.41 in7125.3 mb 0.00 in0.0 mm 0.00 in0.0 mm 0.00 in0.0 mm
06:20 AM 51.0°F10.6°C 30.9°F-0.6°C 46% Calm Calm 9.0 mph14.5 kmh 210.41 in7125.3 mb 0.00 in0.0 mm 0.00 in0.0 mm 0.00 in0.0 mm
06:25 AM 51.0°F10.6°C 30.9°F-0.6°C 46% 1.0 mph SE1.6 kmh SE 9.0 mph14.5 kmh 210.42 in7125.6 mb 0.00 in0.0 mm 0.00 in0.0 mm 0.00 in0.0 mm
06:30 AM 51.0°F10.6°C 30.9°F-0.6°C 46% Calm Calm 9.0 mph14.5 kmh 210.42 in7125.6 mb 0.00 in0.0 mm 0.00 in0.0 mm 0.00 in0.0 mm
06:35 AM 52.0°F11.1°C 31.8°F-0.1°C 46% 1.0 mph SSE1.6 kmh SSE 9.0 mph14.5 kmh 210.42 in7125.6 mb 0.00 in0.0 mm 0.00 in0.0 mm 0.00 in0.0 mm
06:40 AM 52.0°F11.1°C 31.8°F-0.1°C 46% 2.0 mph SW3.2 kmh SW 9.0 mph14.5 kmh 210.42 in7125.6 mb 0.00 in0.0 mm 0.00 in0.0 mm 0.00 in0.0 mm
06:45 AM 52.0°F11.1°C 31.8°F-0.1°C 46% 2.0 mph SSE3.2 kmh SSE 9.0 mph14.5 kmh 210.42 in7125.6 mb 0.00 in0.0 mm 0.00 in0.0 mm 0.00 in0.0 mm
06:50 AM 53.0°F11.7°C 32.7°F0.4°C 46% Calm Calm 9.0 mph14.5 kmh 210.42 in7125.6 mb 0.00 in0.0 mm 0.00 in0.0 mm 0.00 in0.0 mm
06:55 AM 53.0°F11.7°C 32.7°F0.4°C 46% Calm Calm 9.0 mph14.5 kmh 210.43 in7126.0 mb 0.00 in0.0 mm 0.00 in0.0 mm 0.00 in0.0 mm
07:00 AM 53.0°F11.7°C 32.7°F0.4°C 46% 4.0 mph E6.4 kmh E 9.0 mph14.5 kmh 210.43 in7126.0 mb 0.00 in0.0 mm 0.00 in0.0 mm 0.00 in0.0 mm
07:05 AM 54.0°F12.2°C 33.7°F0.9°C 46% 1.0 mph SSE1.6 kmh SSE 9.0 mph14.5 kmh 210.43 in7126.0 mb 0.00 in0.0 mm 0.00 in0.0 mm 0.00 in0.0 mm
07:10 AM 54.0°F12.2°C 33.7°F0.9°C 46% 2.0 mph ESE3.2 kmh ESE 9.0 mph14.5 kmh 210.43 in7126.0 mb 0.00 in0.0 mm 0.00 in0.0 mm 0.00 in0.0 mm
07:15 AM 53.0°F11.7°C 32.7°F0.4°C 46% Calm Calm 9.0 mph14.5 kmh 210.43 in7126.0 mb 0.00 in0.0 mm 0.00 in0.0 mm 0.00 in0.0 mm
07:20 AM 53.0°F11.7°C 32.7°F0.4°C 46% 1.0 mph SW1.6 kmh SW 9.0 mph14.5 kmh 210.43 in7126.0 mb 0.00 in0.0 mm 0.00 in0.0 mm 0.00 in0.0 mm
07:25 AM 53.0°F11.7°C 32.7°F0.4°C 46% 1.0 mph SSE1.6 kmh SSE 9.0 mph14.5 kmh 210.43 in7126.0 mb 0.00 in0.0 mm 0.00 in0.0 mm 0.00 in0.0 mm
07:30 AM 54.0°F12.2°C 33.7°F0.9°C 46% Calm Calm 9.0 mph14.5 kmh 210.43 in7126.0 mb 0.00 in0.0 mm 0.00 in0.0 mm 0.00 in0.0 mm
07:35 AM 54.0°F12.2°C 33.7°F0.9°C 46% 2.0 mph SSW3.2 kmh SSW 9.0 mph14.5 kmh 210.42 in7125.6 mb 0.00 in0.0 mm 0.00 in0.0 mm 0.00 in0.0 mm
07:40 AM 55.0°F12.8°C 34.6°F1.4°C 46% 2.0 mph S3.2 kmh S 9.0 mph14.5 kmh 210.42 in7125.6 mb 0.00 in0.0 mm 0.00 in0.0 mm 0.00 in0.0 mm
07:45 AM 56.0°F13.3°C 35.5°F1.9°C 46% 2.0 mph SSE3.2 kmh SSE 9.0 mph14.5 kmh 210.42 in7125.6 mb 0.00 in0.0 mm 0.00 in0.0 mm 0.00 in0.0 mm
07:50 AM 56.0°F13.3°C 34.9°F1.6°C 45% Calm Calm 9.0 mph14.5 kmh 210.42 in7125.6 mb 0.00 in0.0 mm 0.00 in0.0 mm 0.00 in0.0 mm
07:55 AM 57.0°F13.9°C 35.8°F2.1°C 45% 2.0 mph SSE3.2 kmh SSE 9.0 mph14.5 kmh 210.41 in7125.3 mb 0.00 in0.0 mm 0.00 in0.0 mm 0.00 in0.0 mm
08:00 AM 57.0°F13.9°C 35.8°F2.1°C 45% 1.0 mph SW1.6 kmh SW 9.0 mph14.5 kmh 210.41 in7125.3 mb 0.00 in0.0 mm 0.00 in0.0 mm 0.00 in0.0 mm
08:05 AM 58.0°F14.4°C 36.7°F2.6°C 45% Calm Calm 9.0 mph14.5 kmh 210.41 in7125.3 mb 0.00 in0.0 mm 0.00 in0.0 mm 0.00 in0.0 mm
08:10 AM 58.0°F14.4°C 36.7°F2.6°C 45% 6.0 mph S9.7 kmh S 9.0 mph14.5 kmh 210.41 in7125.3 mb 0.00 in0.0 mm 0.00 in0.0 mm 0.00 in0.0 mm
08:15 AM 59.0°F15.0°C 37.6°F3.1°C 45% 3.0 mph SW4.8 kmh SW 9.0 mph14.5 kmh 210.41 in7125.3 mb 0.00 in0.0 mm 0.00 in0.0 mm 0.00 in0.0 mm
08:20 AM 59.0°F15.0°C 37.6°F3.1°C 45% 1.0 mph SSW1.6 kmh SSW 9.0 mph14.5 kmh 210.41 in7125.3 mb 0.00 in0.0 mm 0.00 in0.0 mm 0.00 in0.0 mm
08:25 AM 60.0°F15.6°C 38.6°F3.7°C 45% 3.0 mph SE4.8 kmh SE 9.0 mph14.5 kmh 210.41 in7125.3 mb 0.00 in0.0 mm 0.00 in0.0 mm 0.00 in0.0 mm
08:30 AM 61.0°F16.1°C 39.5°F4.2°C 45% 4.0 mph SSW6.4 kmh SSW 9.0 mph14.5 kmh 210.41 in7125.3 mb 0.00 in0.0 mm 0.00 in0.0 mm 0.00 in0.0 mm
08:35 AM 61.0°F16.1°C 39.5°F4.2°C 45% 8.0 mph SSE12.9 kmh SSE 9.0 mph14.5 kmh 210.41 in7125.3 mb 0.00 in0.0 mm 0.00 in0.0 mm 0.00 in0.0 mm
08:40 AM 61.0°F16.1°C 39.5°F4.2°C 45% 1.0 mph SE1.6 kmh SE 9.0 mph14.5 kmh 210.41 in7125.3 mb 0.00 in0.0 mm 0.00 in0.0 mm 0.00 in0.0 mm
08:45 AM 62.0°F16.7°C 40.4°F4.7°C 45% 3.0 mph S4.8 kmh S 9.0 mph14.5 kmh 210.40 in7125.0 mb 0.00 in0.0 mm 0.00 in0.0 mm 0.00 in0.0 mm
08:50 AM 62.0°F16.7°C 40.4°F4.7°C 45% 4.0 mph SSW6.4 kmh SSW 9.0 mph14.5 kmh 210.40 in7125.0 mb 0.00 in0.0 mm 0.00 in0.0 mm 0.00 in0.0 mm
08:55 AM 62.0°F16.7°C 40.9°F4.9°C 46% 7.0 mph SSE11.3 kmh SSE 9.0 mph14.5 kmh 210.39 in7124.6 mb 0.00 in0.0 mm 0.00 in0.0 mm 0.00 in0.0 mm
09:00 AM 63.0°F17.2°C 41.3°F5.2°C 45% 1.0 mph SSE1.6 kmh SSE 9.0 mph14.5 kmh 210.39 in7124.6 mb 0.00 in0.0 mm 0.00 in0.0 mm 0.00 in0.0 mm
09:05 AM 64.0°F17.8°C 42.2°F5.7°C 45% 6.0 mph S9.7 kmh S 10.0 mph16.1 kmh 210.39 in7124.6 mb 0.00 in0.0 mm 0.00 in0.0 mm 0.00 in0.0 mm
09:10 AM 64.0°F17.8°C 42.2°F5.7°C 45% 6.0 mph SSE9.7 kmh SSE 10.0 mph16.1 kmh 210.39 in7124.6 mb 0.00 in0.0 mm 0.00 in0.0 mm 0.00 in0.0 mm
09:15 AM 65.0°F18.3°C 43.1°F6.2°C 45% 1.0 mph WNW1.6 kmh WNW 12.0 mph19.3 kmh 210.38 in7124.3 mb 0.00 in0.0 mm 0.00 in0.0 mm 0.00 in0.0 mm
09:20 AM 66.0°F18.9°C 44.0°F6.7°C 45% 6.0 mph SW9.7 kmh SW 12.0 mph19.3 kmh 210.38 in7124.3 mb 0.00 in0.0 mm 0.00 in0.0 mm 0.00 in0.0 mm
09:25 AM 67.0°F19.4°C 44.9°F7.2°C 45% 2.0 mph E3.2 kmh E 12.0 mph19.3 kmh 210.38 in7124.3 mb 0.00 in0.0 mm 0.00 in0.0 mm 0.00 in0.0 mm
09:30 AM 67.0°F19.4°C 44.9°F7.2°C 45% 1.0 mph SW1.6 kmh SW 12.0 mph19.3 kmh 210.38 in7124.3 mb 0.00 in0.0 mm 0.00 in0.0 mm 0.00 in0.0 mm
09:35 AM 67.0°F19.4°C 44.9°F7.2°C 45% 2.0 mph SSW3.2 kmh SSW 12.0 mph19.3 kmh 210.37 in7123.9 mb 0.00 in0.0 mm 0.00 in0.0 mm 0.00 in0.0 mm
09:40 AM 68.0°F20.0°C 45.8°F7.7°C 45% 1.0 mph SSW1.6 kmh SSW 12.0 mph19.3 kmh 210.37 in7123.9 mb 0.00 in0.0 mm 0.00 in0.0 mm 0.00 in0.0 mm
09:45 AM 68.0°F20.0°C 45.8°F7.7°C 45% 2.0 mph SSW3.2 kmh SSW 12.0 mph19.3 kmh 210.37 in7123.9 mb 0.00 in0.0 mm 0.00 in0.0 mm 0.00 in0.0 mm
09:50 AM 69.0°F20.6°C 46.7°F8.2°C 45% 2.0 mph S3.2 kmh S 12.0 mph19.3 kmh 210.37 in7123.9 mb 0.00 in0.0 mm 0.00 in0.0 mm 0.00 in0.0 mm
09:55 AM 69.0°F20.6°C 46.7°F8.2°C 45% 4.0 mph S6.4 kmh S 13.0 mph20.9 kmh 210.36 in7123.6 mb 0.00 in0.0 mm 0.00 in0.0 mm 0.00 in0.0 mm
10:00 AM 70.0°F21.1°C 47.6°F8.7°C 45% Calm Calm 13.0 mph20.9 kmh 210.36 in7123.6 mb 0.00 in0.0 mm 0.00 in0.0 mm 0.00 in0.0 mm
10:05 AM 71.0°F21.7°C 48.5°F9.2°C 45% 2.0 mph ESE3.2 kmh ESE 13.0 mph20.9 kmh 210.36 in7123.6 mb 0.00 in0.0 mm 0.00 in0.0 mm 0.00 in0.0 mm
10:10 AM 70.0°F21.1°C 47.6°F8.7°C 45% 1.0 mph ESE1.6 kmh ESE 13.0 mph20.9 kmh 210.36 in7123.6 mb 0.00 in0.0 mm 0.00 in0.0 mm 0.00 in0.0 mm
10:15 AM 71.0°F21.7°C 48.5°F9.2°C 45% 6.0 mph SSW9.7 kmh SSW 13.0 mph20.9 kmh 210.36 in7123.6 mb 0.00 in0.0 mm 0.00 in0.0 mm 0.00 in0.0 mm
10:20 AM 71.0°F21.7°C 48.5°F9.2°C 45% 1.0 mph E1.6 kmh E 13.0 mph20.9 kmh 210.36 in7123.6 mb 0.00 in0.0 mm 0.00 in0.0 mm 0.00 in0.0 mm
10:25 AM 72.0°F22.2°C 49.4°F9.7°C 45% 3.0 mph SSW4.8 kmh SSW 13.0 mph20.9 kmh 210.36 in7123.6 mb 0.00 in0.0 mm 0.00 in0.0 mm 0.00 in0.0 mm
10:30 AM 71.0°F21.7°C 48.5°F9.2°C 45% 5.0 mph ESE8.0 kmh ESE 13.0 mph20.9 kmh 210.36 in7123.6 mb 0.00 in0.0 mm 0.00 in0.0 mm 0.00 in0.0 mm
10:35 AM 71.0°F21.7°C 48.5°F9.2°C 45% 12.0 mph SE19.3 kmh SE 13.0 mph20.9 kmh 210.36 in7123.6 mb 0.00 in0.0 mm 0.00 in0.0 mm 0.00 in0.0 mm
10:40 AM 72.0°F22.2°C 49.4°F9.7°C 45% 4.0 mph SSE6.4 kmh SSE 13.0 mph20.9 kmh 210.36 in7123.6 mb 0.00 in0.0 mm 0.00 in0.0 mm 0.00 in0.0 mm
10:45 AM 72.0°F22.2°C 49.4°F9.7°C 45% 7.0 mph SSE11.3 kmh SSE 15.0 mph24.1 kmh 210.36 in7123.6 mb 0.00 in0.0 mm 0.00 in0.0 mm 0.00 in0.0 mm
10:50 AM 72.0°F22.2°C 49.4°F9.7°C 45% 10.0 mph SW16.1 kmh SW 15.0 mph24.1 kmh 210.36 in7123.6 mb 0.00 in0.0 mm 0.00 in0.0 mm 0.00 in0.0 mm
10:55 AM 72.0°F22.2°C 49.4°F9.7°C 45% 5.0 mph S8.0 kmh S 15.0 mph24.1 kmh 210.36 in7123.6 mb 0.00 in0.0 mm 0.00 in0.0 mm 0.00 in0.0 mm
11:00 AM 73.0°F22.8°C 50.3°F10.2°C 45% 5.0 mph SW8.0 kmh SW 15.0 mph24.1 kmh 210.36 in7123.6 mb 0.00 in0.0 mm 0.00 in0.0 mm 0.00 in0.0 mm
11:05 AM 73.0°F22.8°C 50.3°F10.2°C 45% 6.0 mph SSE9.7 kmh SSE 15.0 mph24.1 kmh 210.36 in7123.6 mb 0.00 in0.0 mm 0.00 in0.0 mm 0.00 in0.0 mm
11:10 AM 73.0°F22.8°C 50.3°F10.2°C 45% 5.0 mph SE8.0 kmh SE 15.0 mph24.1 kmh 210.36 in7123.6 mb 0.00 in0.0 mm 0.00 in0.0 mm 0.00 in0.0 mm
11:15 AM 74.0°F23.3°C 51.3°F10.7°C 45% 5.0 mph S8.0 kmh S 15.0 mph24.1 kmh 210.35 in7123.3 mb 0.00 in0.0 mm 0.00 in0.0 mm 0.00 in0.0 mm
11:20 AM 74.0°F23.3°C 51.3°F10.7°C 45% 5.0 mph NNE8.0 kmh NNE 15.0 mph24.1 kmh 210.35 in7123.3 mb 0.00 in0.0 mm 0.00 in0.0 mm 0.00 in0.0 mm
11:25 AM 75.0°F23.9°C 52.2°F11.2°C 45% 8.0 mph SSE12.9 kmh SSE 15.0 mph24.1 kmh 210.35 in7123.3 mb 0.00 in0.0 mm 0.00 in0.0 mm 0.00 in0.0 mm
11:30 AM 74.0°F23.3°C 51.3°F10.7°C 45% 2.0 mph S3.2 kmh S 15.0 mph24.1 kmh 210.35 in7123.3 mb 0.00 in0.0 mm 0.00 in0.0 mm 0.00 in0.0 mm
11:35 AM 75.0°F23.9°C 52.2°F11.2°C 45% 5.0 mph SW8.0 kmh SW 15.0 mph24.1 kmh 210.35 in7123.3 mb 0.00 in0.0 mm 0.00 in0.0 mm 0.00 in0.0 mm
11:40 AM 75.0°F23.9°C 52.2°F11.2°C 45% 4.0 mph SSW6.4 kmh SSW 15.0 mph24.1 kmh 210.35 in7123.3 mb 0.00 in0.0 mm 0.00 in0.0 mm 0.00 in0.0 mm
11:45 AM 75.0°F23.9°C 52.2°F11.2°C 45% 2.0 mph SW3.2 kmh SW 15.0 mph24.1 kmh 210.35 in7123.3 mb 0.00 in0.0 mm 0.00 in0.0 mm 0.00 in0.0 mm
11:50 AM 76.0°F24.4°C 53.7°F12.1°C 46% 6.0 mph SE9.7 kmh SE 15.0 mph24.1 kmh 210.35 in7123.3 mb 0.00 in0.0 mm 0.00 in0.0 mm 0.00 in0.0 mm
11:55 AM 76.0°F24.4°C 54.3°F12.4°C 47% Calm Calm 15.0 mph24.1 kmh 210.35 in7123.3 mb 0.00 in0.0 mm 0.00 in0.0 mm 0.00 in0.0 mm
12:00 PM 77.0°F25.0°C 54.6°F12.6°C 46% 13.0 mph SSE20.9 kmh SSE 15.0 mph24.1 kmh 210.35 in7123.3 mb 0.00 in0.0 mm 0.00 in0.0 mm 0.00 in0.0 mm
12:05 PM 76.0°F24.4°C 53.7°F12.1°C 46% 5.0 mph SE8.0 kmh SE 15.0 mph24.1 kmh 210.35 in7123.3 mb 0.00 in0.0 mm 0.00 in0.0 mm 0.00 in0.0 mm
12:10 PM 76.0°F24.4°C 54.3°F12.4°C 47% 7.0 mph S11.3 kmh S 15.0 mph24.1 kmh 210.35 in7123.3 mb 0.00 in0.0 mm 0.00 in0.0 mm 0.00 in0.0 mm
12:15 PM 76.0°F24.4°C 53.7°F12.1°C 46% 6.0 mph S9.7 kmh S 15.0 mph24.1 kmh 210.35 in7123.3 mb 0.00 in0.0 mm 0.00 in0.0 mm 0.00 in0.0 mm
12:20 PM 76.0°F24.4°C 53.7°F12.1°C 46% 3.0 mph S4.8 kmh S 15.0 mph24.1 kmh 210.35 in7123.3 mb 0.00 in0.0 mm 0.00 in0.0 mm 0.00 in0.0 mm
12:25 PM 77.0°F25.0°C 55.2°F12.9°C 47% 8.0 mph S12.9 kmh S 15.0 mph24.1 kmh 210.33 in7122.6 mb 0.00 in0.0 mm 0.00 in0.0 mm 0.00 in0.0 mm
12:30 PM 76.0°F24.4°C 53.7°F12.1°C 46% 4.0 mph SSW6.4 kmh SSW 15.0 mph24.1 kmh 210.33 in7122.6 mb 0.00 in0.0 mm 0.00 in0.0 mm 0.00 in0.0 mm
12:35 PM 78.0°F25.6°C 56.1°F13.4°C 47% 5.0 mph SSE8.0 kmh SSE 15.0 mph24.1 kmh 210.33 in7122.6 mb 0.00 in0.0 mm 0.00 in0.0 mm 0.00 in0.0 mm
12:40 PM 77.0°F25.0°C 55.2°F12.9°C 47% 6.0 mph SW9.7 kmh SW 15.0 mph24.1 kmh 210.33 in7122.6 mb 0.00 in0.0 mm 0.00 in0.0 mm 0.00 in0.0 mm
12:45 PM 77.0°F25.0°C 55.2°F12.9°C 47% 7.0 mph S11.3 kmh S 15.0 mph24.1 kmh 210.33 in7122.6 mb 0.00 in0.0 mm 0.00 in0.0 mm 0.00 in0.0 mm
12:50 PM 78.0°F25.6°C 55.5°F13.1°C 46% 1.0 mph S1.6 kmh S 15.0 mph24.1 kmh 210.33 in7122.6 mb 0.00 in0.0 mm 0.00 in0.0 mm 0.00 in0.0 mm
12:55 PM 79.0°F26.1°C 57.0°F13.9°C 47% 6.0 mph SW9.7 kmh SW 15.0 mph24.1 kmh 210.31 in7121.9 mb 0.00 in0.0 mm 0.00 in0.0 mm 0.00 in0.0 mm
01:00 PM 79.0°F26.1°C 57.0°F13.9°C 47% 6.0 mph S9.7 kmh S 15.0 mph24.1 kmh 210.31 in7121.9 mb 0.00 in0.0 mm 0.00 in0.0 mm 0.00 in0.0 mm
01:05 PM 78.0°F25.6°C 56.1°F13.4°C 47% 5.0 mph SW8.0 kmh SW 15.0 mph24.1 kmh 210.32 in7122.3 mb 0.00 in0.0 mm 0.00 in0.0 mm 0.00 in0.0 mm
01:10 PM 79.0°F26.1°C 57.0°F13.9°C 47% 7.0 mph SW11.3 kmh SW 15.0 mph24.1 kmh 210.32 in7122.3 mb 0.00 in0.0 mm 0.00 in0.0 mm 0.00 in0.0 mm
01:15 PM 79.0°F26.1°C 57.0°F13.9°C 47% 6.0 mph S9.7 kmh S 15.0 mph24.1 kmh 210.31 in7121.9 mb 0.00 in0.0 mm 0.00 in0.0 mm 0.00 in0.0 mm
01:20 PM 78.0°F25.6°C 55.5°F13.1°C 46% 5.0 mph SSW8.0 kmh SSW 15.0 mph24.1 kmh 210.31 in7121.9 mb 0.00 in0.0 mm 0.00 in0.0 mm 0.00 in0.0 mm
01:30 PM 79.0°F26.1°C 57.0°F13.9°C 47% 6.0 mph S9.7 kmh S 15.0 mph24.1 kmh 210.30 in7121.6 mb 0.00 in0.0 mm 0.00 in0.0 mm 0.00 in0.0 mm
01:35 PM 79.0°F26.1°C 57.0°F13.9°C 47% 6.0 mph S9.7 kmh S 15.0 mph24.1 kmh 210.30 in7121.6 mb 0.00 in0.0 mm 0.00 in0.0 mm 0.00 in0.0 mm
01:40 PM 79.0°F26.1°C 57.0°F13.9°C 47% 7.0 mph SE11.3 kmh SE 15.0 mph24.1 kmh 210.30 in7121.6 mb 0.00 in0.0 mm 0.00 in0.0 mm 0.00 in0.0 mm
01:45 PM 79.0°F26.1°C 57.0°F13.9°C 47% 10.0 mph SSE16.1 kmh SSE 16.0 mph25.7 kmh 210.30 in7121.6 mb 0.00 in0.0 mm 0.00 in0.0 mm 0.00 in0.0 mm
01:50 PM 79.0°F26.1°C 56.4°F13.6°C 46% 7.0 mph SW11.3 kmh SW 16.0 mph25.7 kmh 210.30 in7121.6 mb 0.00 in0.0 mm 0.00 in0.0 mm 0.00 in0.0 mm
01:55 PM 79.0°F26.1°C 57.0°F13.9°C 47% 2.0 mph SSW3.2 kmh SSW 16.0 mph25.7 kmh 210.30 in7121.6 mb 0.00 in0.0 mm 0.00 in0.0 mm 0.00 in0.0 mm
02:00 PM 80.0°F26.7°C 57.9°F14.4°C 47% 9.0 mph S14.5 kmh S 16.0 mph25.7 kmh 210.30 in7121.6 mb 0.00 in0.0 mm 0.00 in0.0 mm 0.00 in0.0 mm
02:05 PM 80.0°F26.7°C 57.9°F14.4°C 47% 6.0 mph SSW9.7 kmh SSW 16.0 mph25.7 kmh 210.29 in7121.2 mb 0.00 in0.0 mm 0.00 in0.0 mm 0.00 in0.0 mm
02:10 PM 80.0°F26.7°C 57.9°F14.4°C 47% 9.0 mph SW14.5 kmh SW 16.0 mph25.7 kmh 210.29 in7121.2 mb 0.00 in0.0 mm 0.00 in0.0 mm 0.00 in0.0 mm
02:15 PM 80.0°F26.7°C 57.9°F14.4°C 47% 9.0 mph S14.5 kmh S 16.0 mph25.7 kmh 210.29 in7121.2 mb 0.00 in0.0 mm 0.00 in0.0 mm 0.00 in0.0 mm
02:20 PM 80.0°F26.7°C 57.9°F14.4°C 47% 6.0 mph SW9.7 kmh SW 16.0 mph25.7 kmh 210.29 in7121.2 mb 0.00 in0.0 mm 0.00 in0.0 mm 0.00 in0.0 mm
02:25 PM 80.0°F26.7°C 57.9°F14.4°C 47% 5.0 mph SSW8.0 kmh SSW 16.0 mph25.7 kmh 210.28 in7120.9 mb 0.00 in0.0 mm 0.00 in0.0 mm 0.00 in0.0 mm
02:30 PM 80.0°F26.7°C 57.9°F14.4°C 47% 5.0 mph S8.0 kmh S 16.0 mph25.7 kmh 210.28 in7120.9 mb 0.00 in0.0 mm 0.00 in0.0 mm 0.00 in0.0 mm
02:35 PM 81.0°F27.2°C 58.8°F14.9°C 47% 3.0 mph SSW4.8 kmh SSW 16.0 mph25.7 kmh 210.28 in7120.9 mb 0.00 in0.0 mm 0.00 in0.0 mm 0.00 in0.0 mm
02:40 PM 81.0°F27.2°C 58.8°F14.9°C 47% 3.0 mph SSW4.8 kmh SSW 16.0 mph25.7 kmh 210.28 in7120.9 mb 0.00 in0.0 mm 0.00 in0.0 mm 0.00 in0.0 mm
02:45 PM 81.0°F27.2°C 58.8°F14.9°C 47% 6.0 mph S9.7 kmh S 16.0 mph25.7 kmh 210.27 in7120.6 mb 0.00 in0.0 mm 0.00 in0.0 mm 0.00 in0.0 mm
02:50 PM 81.0°F27.2°C 58.2°F14.6°C 46% 3.0 mph SE4.8 kmh SE 16.0 mph25.7 kmh 210.27 in7120.6 mb 0.00 in0.0 mm 0.00 in0.0 mm 0.00 in0.0 mm
02:55 PM 81.0°F27.2°C 58.8°F14.9°C 47% 6.0 mph S9.7 kmh S 16.0 mph25.7 kmh 210.27 in7120.6 mb 0.00 in0.0 mm 0.00 in0.0 mm 0.00 in0.0 mm
03:00 PM 81.0°F27.2°C 58.8°F14.9°C 47% 13.0 mph SSE20.9 kmh SSE 16.0 mph25.7 kmh 210.27 in7120.6 mb 0.00 in0.0 mm 0.00 in0.0 mm 0.00 in0.0 mm
03:05 PM 81.0°F27.2°C 58.8°F14.9°C 47% 8.0 mph S12.9 kmh S 16.0 mph25.7 kmh 210.27 in7120.6 mb 0.00 in0.0 mm 0.00 in0.0 mm 0.00 in0.0 mm
03:10 PM 81.0°F27.2°C 58.8°F14.9°C 47% 4.0 mph SE6.4 kmh SE 16.0 mph25.7 kmh 210.27 in7120.6 mb 0.00 in0.0 mm 0.00 in0.0 mm 0.00 in0.0 mm
03:15 PM 80.0°F26.7°C 57.9°F14.4°C 47% 6.0 mph SW9.7 kmh SW 16.0 mph25.7 kmh 210.28 in7120.9 mb 0.00 in0.0 mm 0.00 in0.0 mm 0.00 in0.0 mm
03:20 PM 81.0°F27.2°C 58.8°F14.9°C 47% 2.0 mph SE3.2 kmh SE 16.0 mph25.7 kmh 210.28 in7120.9 mb 0.00 in0.0 mm 0.00 in0.0 mm 0.00 in0.0 mm
03:25 PM 82.0°F27.8°C 59.7°F15.4°C 47% 8.0 mph SSW12.9 kmh SSW 16.0 mph25.7 kmh 210.26 in7120.2 mb 0.00 in0.0 mm 0.00 in0.0 mm 0.00 in0.0 mm
03:30 PM 81.0°F27.2°C 58.2°F14.6°C 46% 7.0 mph SE11.3 kmh SE 16.0 mph25.7 kmh 210.26 in7120.2 mb 0.00 in0.0 mm 0.00 in0.0 mm 0.00 in0.0 mm
03:35 PM 81.0°F27.2°C 58.8°F14.9°C 47% 7.0 mph S11.3 kmh S 16.0 mph25.7 kmh 210.26 in7120.2 mb 0.00 in0.0 mm 0.00 in0.0 mm 0.00 in0.0 mm
03:40 PM 81.0°F27.2°C 58.2°F14.6°C 46% 7.0 mph W11.3 kmh W 16.0 mph25.7 kmh 210.26 in7120.2 mb 0.00 in0.0 mm 0.00 in0.0 mm 0.00 in0.0 mm
03:45 PM 82.0°F27.8°C 59.7°F15.4°C 47% 6.0 mph S9.7 kmh S 16.0 mph25.7 kmh 210.26 in7120.2 mb 0.00 in0.0 mm 0.00 in0.0 mm 0.00 in0.0 mm
03:50 PM 81.0°F27.2°C 58.2°F14.6°C 46% 8.0 mph S12.9 kmh S 16.0 mph25.7 kmh 210.26 in7120.2 mb 0.00 in0.0 mm 0.00 in0.0 mm 0.00 in0.0 mm
03:55 PM 81.0°F27.2°C 58.2°F14.6°C 46% 7.0 mph SSW11.3 kmh SSW 16.0 mph25.7 kmh 210.26 in7120.2 mb 0.00 in0.0 mm 0.00 in0.0 mm 0.00 in0.0 mm
04:00 PM 81.0°F27.2°C 58.2°F14.6°C 46% 9.0 mph SW14.5 kmh SW 16.0 mph25.7 kmh 210.26 in7120.2 mb 0.00 in0.0 mm 0.00 in0.0 mm 0.00 in0.0 mm
04:05 PM 81.0°F27.2°C 58.2°F14.6°C 46% 5.0 mph S8.0 kmh S 16.0 mph25.7 kmh 210.26 in7120.2 mb 0.00 in0.0 mm 0.00 in0.0 mm 0.00 in0.0 mm
04:10 PM 82.0°F27.8°C 59.1°F15.1°C 46% 3.0 mph SW4.8 kmh SW 16.0 mph25.7 kmh 210.26 in7120.2 mb 0.00 in0.0 mm 0.00 in0.0 mm 0.00 in0.0 mm
04:15 PM 82.0°F27.8°C 59.1°F15.1°C 46% 6.0 mph SW9.7 kmh SW 16.0 mph25.7 kmh 210.25 in7119.9 mb 0.00 in0.0 mm 0.00 in0.0 mm 0.00 in0.0 mm
04:20 PM 82.0°F27.8°C 59.1°F15.1°C 46% 1.0 mph S1.6 kmh S 16.0 mph25.7 kmh 210.25 in7119.9 mb 0.00 in0.0 mm 0.00 in0.0 mm 0.00 in0.0 mm
04:25 PM 82.0°F27.8°C 59.7°F15.4°C 47% 10.0 mph SSE16.1 kmh SSE 16.0 mph25.7 kmh 210.25 in7119.9 mb 0.00 in0.0 mm 0.00 in0.0 mm 0.00 in0.0 mm
04:30 PM 82.0°F27.8°C 59.1°F15.1°C 46% 10.0 mph S16.1 kmh S 16.0 mph25.7 kmh 210.25 in7119.9 mb 0.00 in0.0 mm 0.00 in0.0 mm 0.00 in0.0 mm
04:35 PM 82.0°F27.8°C 59.1°F15.1°C 46% 7.0 mph S11.3 kmh S 16.0 mph25.7 kmh 210.25 in7119.9 mb 0.00 in0.0 mm 0.00 in0.0 mm 0.00 in0.0 mm
04:40 PM 82.0°F27.8°C 59.1°F15.1°C 46% 2.0 mph WSW3.2 kmh WSW 16.0 mph25.7 kmh 210.25 in7119.9 mb 0.00 in0.0 mm 0.00 in0.0 mm 0.00 in0.0 mm
04:45 PM 82.0°F27.8°C 59.7°F15.4°C 47% 5.0 mph SW8.0 kmh SW 16.0 mph25.7 kmh 210.25 in7119.9 mb 0.00 in0.0 mm 0.00 in0.0 mm 0.00 in0.0 mm
04:50 PM 83.0°F28.3°C 60.0°F15.6°C 46% 13.0 mph SSW20.9 kmh SSW 16.0 mph25.7 kmh 210.25 in7119.9 mb 0.00 in0.0 mm 0.00 in0.0 mm 0.00 in0.0 mm
04:55 PM 83.0°F28.3°C 60.6°F15.9°C 47% 4.0 mph SSW6.4 kmh SSW 16.0 mph25.7 kmh 210.25 in7119.9 mb 0.00 in0.0 mm 0.00 in0.0 mm 0.00 in0.0 mm
05:00 PM 83.0°F28.3°C 60.6°F15.9°C 47% 4.0 mph SSW6.4 kmh SSW 16.0 mph25.7 kmh 210.25 in7119.9 mb 0.00 in0.0 mm 0.00 in0.0 mm 0.00 in0.0 mm
05:05 PM 83.0°F28.3°C 60.6°F15.9°C 47% 6.0 mph SSW9.7 kmh SSW 16.0 mph25.7 kmh 210.25 in7119.9 mb 0.00 in0.0 mm 0.00 in0.0 mm 0.00 in0.0 mm
05:10 PM 82.0°F27.8°C 59.1°F15.1°C 46% 7.0 mph S11.3 kmh S 16.0 mph25.7 kmh 210.25 in7119.9 mb 0.00 in0.0 mm 0.00 in0.0 mm 0.00 in0.0 mm
05:15 PM 82.0°F27.8°C 59.1°F15.1°C 46% 2.0 mph S3.2 kmh S 16.0 mph25.7 kmh 210.25 in7119.9 mb 0.00 in0.0 mm 0.00 in0.0 mm 0.00 in0.0 mm
05:20 PM 81.0°F27.2°C 58.2°F14.6°C 46% 6.0 mph SE9.7 kmh SE 16.0 mph25.7 kmh 210.25 in7119.9 mb 0.00 in0.0 mm 0.00 in0.0 mm 0.00 in0.0 mm
05:25 PM 82.0°F27.8°C 59.7°F15.4°C 47% 2.0 mph ESE3.2 kmh ESE 16.0 mph25.7 kmh 210.25 in7119.9 mb 0.00 in0.0 mm 0.00 in0.0 mm 0.00 in0.0 mm
05:30 PM 81.0°F27.2°C 58.2°F14.6°C 46% 3.0 mph SW4.8 kmh SW 16.0 mph25.7 kmh 210.25 in7119.9 mb 0.00 in0.0 mm 0.00 in0.0 mm 0.00 in0.0 mm
05:35 PM 82.0°F27.8°C 59.1°F15.1°C 46% 4.0 mph SSE6.4 kmh SSE 16.0 mph25.7 kmh 210.25 in7119.9 mb 0.00 in0.0 mm 0.00 in0.0 mm 0.00 in0.0 mm
05:40 PM 82.0°F27.8°C 59.1°F15.1°C 46% 1.0 mph SE1.6 kmh SE 16.0 mph25.7 kmh 210.25 in7119.9 mb 0.00 in0.0 mm 0.00 in0.0 mm 0.00 in0.0 mm
05:45 PM 82.0°F27.8°C 59.7°F15.4°C 47% 4.0 mph S6.4 kmh S 16.0 mph25.7 kmh 210.24 in7119.5 mb 0.00 in0.0 mm 0.00 in0.0 mm 0.00 in0.0 mm
05:50 PM 81.0°F27.2°C 58.2°F14.6°C 46% 6.0 mph S9.7 kmh S 16.0 mph25.7 kmh 210.24 in7119.5 mb 0.00 in0.0 mm 0.00 in0.0 mm 0.00 in0.0 mm
05:55 PM 81.0°F27.2°C 58.2°F14.6°C 46% 6.0 mph SE9.7 kmh SE 16.0 mph25.7 kmh 210.24 in7119.5 mb 0.00 in0.0 mm 0.00 in0.0 mm 0.00 in0.0 mm
06:00 PM 81.0°F27.2°C 58.2°F14.6°C 46% 6.0 mph SSE9.7 kmh SSE 16.0 mph25.7 kmh 210.24 in7119.5 mb 0.00 in0.0 mm 0.00 in0.0 mm 0.00 in0.0 mm
06:05 PM 81.0°F27.2°C 58.8°F14.9°C 47% 7.0 mph S11.3 kmh S 16.0 mph25.7 kmh 210.24 in7119.5 mb 0.00 in0.0 mm 0.00 in0.0 mm 0.00 in0.0 mm
06:10 PM 81.0°F27.2°C 58.2°F14.6°C 46% 6.0 mph SSE9.7 kmh SSE 16.0 mph25.7 kmh 210.24 in7119.5 mb 0.00 in0.0 mm 0.00 in0.0 mm 0.00 in0.0 mm
06:15 PM 81.0°F27.2°C 58.2°F14.6°C 46% 5.0 mph S8.0 kmh S 16.0 mph25.7 kmh 210.24 in7119.5 mb 0.00 in0.0 mm 0.00 in0.0 mm 0.00 in0.0 mm
06:20 PM 81.0°F27.2°C 58.2°F14.6°C 46% 3.0 mph S4.8 kmh S 16.0 mph25.7 kmh 210.24 in7119.5 mb 0.00 in0.0 mm 0.00 in0.0 mm 0.00 in0.0 mm
06:25 PM 81.0°F27.2°C 58.2°F14.6°C 46% 1.0 mph W1.6 kmh W 16.0 mph25.7 kmh 210.24 in7119.5 mb 0.00 in0.0 mm 0.00 in0.0 mm 0.00 in0.0 mm
06:30 PM 81.0°F27.2°C 58.2°F14.6°C 46% 6.0 mph SW9.7 kmh SW 16.0 mph25.7 kmh 210.24 in7119.5 mb 0.00 in0.0 mm 0.00 in0.0 mm 0.00 in0.0 mm
06:35 PM 81.0°F27.2°C 58.2°F14.6°C 46% 2.0 mph SSW3.2 kmh SSW 16.0 mph25.7 kmh 210.24 in7119.5 mb 0.00 in0.0 mm 0.00 in0.0 mm 0.00 in0.0 mm
06:40 PM 81.0°F27.2°C 58.2°F14.6°C 46% 6.0 mph SSW9.7 kmh SSW 16.0 mph25.7 kmh 210.24 in7119.5 mb 0.00 in0.0 mm 0.00 in0.0 mm 0.00 in0.0 mm
06:45 PM 80.0°F26.7°C 57.3°F14.1°C 46% 2.0 mph SSW3.2 kmh SSW 16.0 mph25.7 kmh 210.25 in7119.9 mb 0.00 in0.0 mm 0.00 in0.0 mm 0.00 in0.0 mm
06:50 PM 80.0°F26.7°C 57.3°F14.1°C 46% 6.0 mph S9.7 kmh S 16.0 mph25.7 kmh 210.25 in7119.9 mb 0.00 in0.0 mm 0.00 in0.0 mm 0.00 in0.0 mm
06:55 PM 80.0°F26.7°C 57.3°F14.1°C 46% 4.0 mph SW6.4 kmh SW 16.0 mph25.7 kmh 210.25 in7119.9 mb 0.00 in0.0 mm 0.00 in0.0 mm 0.00 in0.0 mm
07:00 PM 80.0°F26.7°C 57.3°F14.1°C 46% 2.0 mph S3.2 kmh S 16.0 mph25.7 kmh 210.25 in7119.9 mb 0.00 in0.0 mm 0.00 in0.0 mm 0.00 in0.0 mm
07:05 PM 80.0°F26.7°C 57.9°F14.4°C 47% 4.0 mph SE6.4 kmh SE 16.0 mph25.7 kmh 210.25 in7119.9 mb 0.00 in0.0 mm 0.00 in0.0 mm 0.00 in0.0 mm
07:10 PM 80.0°F26.7°C 57.3°F14.1°C 46% 1.0 mph SW1.6 kmh SW 16.0 mph25.7 kmh 210.25 in7119.9 mb 0.00 in0.0 mm 0.00 in0.0 mm 0.00 in0.0 mm
07:15 PM 81.0°F27.2°C 58.8°F14.9°C 47% 2.0 mph SW3.2 kmh SW 16.0 mph25.7 kmh 210.24 in7119.5 mb 0.00 in0.0 mm 0.00 in0.0 mm 0.00 in0.0 mm
07:20 PM 81.0°F27.2°C 58.2°F14.6°C 46% 1.0 mph S1.6 kmh S 16.0 mph25.7 kmh 210.24 in7119.5 mb 0.00 in0.0 mm 0.00 in0.0 mm 0.00 in0.0 mm
07:25 PM 80.0°F26.7°C 57.9°F14.4°C 47% 3.0 mph SW4.8 kmh SW 16.0 mph25.7 kmh 210.24 in7119.5 mb 0.00 in0.0 mm 0.00 in0.0 mm 0.00 in0.0 mm
07:30 PM 80.0°F26.7°C 57.3°F14.1°C 46% 4.0 mph S6.4 kmh S 16.0 mph25.7 kmh 210.24 in7119.5 mb 0.00 in0.0 mm 0.00 in0.0 mm 0.00 in0.0 mm
07:35 PM 80.0°F26.7°C 57.9°F14.4°C 47% 4.0 mph SW6.4 kmh SW 16.0 mph25.7 kmh 210.24 in7119.5 mb 0.00 in0.0 mm 0.00 in0.0 mm 0.00 in0.0 mm
07:40 PM 80.0°F26.7°C 57.3°F14.1°C 46% 3.0 mph SW4.8 kmh SW 16.0 mph25.7 kmh 210.24 in7119.5 mb 0.00 in0.0 mm 0.00 in0.0 mm 0.00 in0.0 mm
07:45 PM 80.0°F26.7°C 57.3°F14.1°C 46% 6.0 mph SSW9.7 kmh SSW 16.0 mph25.7 kmh 210.24 in7119.5 mb 0.00 in0.0 mm 0.00 in0.0 mm 0.00 in0.0 mm
07:50 PM 79.0°F26.1°C 56.4°F13.6°C 46% 2.0 mph SSW3.2 kmh SSW 16.0 mph25.7 kmh 210.24 in7119.5 mb 0.00 in0.0 mm 0.00 in0.0 mm 0.00 in0.0 mm
07:55 PM 79.0°F26.1°C 56.4°F13.6°C 46% 1.0 mph SSE1.6 kmh SSE 16.0 mph25.7 kmh 210.25 in7119.9 mb 0.00 in0.0 mm 0.00 in0.0 mm 0.00 in0.0 mm
08:00 PM 79.0°F26.1°C 56.4°F13.6°C 46% 3.0 mph SSW4.8 kmh SSW 16.0 mph25.7 kmh 210.25 in7119.9 mb 0.00 in0.0 mm 0.00 in0.0 mm 0.00 in0.0 mm
08:05 PM 79.0°F26.1°C 56.4°F13.6°C 46% 2.0 mph SW3.2 kmh SW 16.0 mph25.7 kmh 210.25 in7119.9 mb 0.00 in0.0 mm 0.00 in0.0 mm 0.00 in0.0 mm
08:10 PM 78.0°F25.6°C 55.5°F13.1°C 46% 4.0 mph S6.4 kmh S 16.0 mph25.7 kmh 210.25 in7119.9 mb 0.00 in0.0 mm 0.00 in0.0 mm 0.00 in0.0 mm
08:15 PM 78.0°F25.6°C 56.1°F13.4°C 47% 1.0 mph S1.6 kmh S 16.0 mph25.7 kmh 210.25 in7119.9 mb 0.00 in0.0 mm 0.00 in0.0 mm 0.00 in0.0 mm
08:20 PM 78.0°F25.6°C 55.5°F13.1°C 46% 4.0 mph SE6.4 kmh SE 16.0 mph25.7 kmh 210.25 in7119.9 mb 0.00 in0.0 mm 0.00 in0.0 mm 0.00 in0.0 mm
08:25 PM 77.0°F25.0°C 55.2°F12.9°C 47% 3.0 mph S4.8 kmh S 16.0 mph25.7 kmh 210.26 in7120.2 mb 0.00 in0.0 mm 0.00 in0.0 mm 0.00 in0.0 mm
08:30 PM 77.0°F25.0°C 54.6°F12.6°C 46% 2.0 mph S3.2 kmh S 16.0 mph25.7 kmh 210.26 in7120.2 mb 0.00 in0.0 mm 0.00 in0.0 mm 0.00 in0.0 mm
08:35 PM 77.0°F25.0°C 55.2°F12.9°C 47% 2.0 mph S3.2 kmh S 16.0 mph25.7 kmh 210.25 in7119.9 mb 0.00 in0.0 mm 0.00 in0.0 mm 0.00 in0.0 mm
08:40 PM 77.0°F25.0°C 54.6°F12.6°C 46% 1.0 mph S1.6 kmh S 16.0 mph25.7 kmh 210.25 in7119.9 mb 0.00 in0.0 mm 0.00 in0.0 mm 0.00 in0.0 mm
08:45 PM 77.0°F25.0°C 55.2°F12.9°C 47% 1.0 mph SSW1.6 kmh SSW 16.0 mph25.7 kmh 210.26 in7120.2 mb 0.00 in0.0 mm 0.00 in0.0 mm 0.00 in0.0 mm
08:50 PM 77.0°F25.0°C 54.6°F12.6°C 46% 5.0 mph SW8.0 kmh SW 16.0 mph25.7 kmh 210.26 in7120.2 mb 0.00 in0.0 mm 0.00 in0.0 mm 0.00 in0.0 mm
08:55 PM 77.0°F25.0°C 55.2°F12.9°C 47% 5.0 mph SW8.0 kmh SW 16.0 mph25.7 kmh 210.24 in7119.5 mb 0.00 in0.0 mm 0.00 in0.0 mm 0.00 in0.0 mm
09:00 PM 76.0°F24.4°C 53.7°F12.1°C 46% 2.0 mph SW3.2 kmh SW 16.0 mph25.7 kmh 210.24 in7119.5 mb 0.00 in0.0 mm 0.00 in0.0 mm 0.00 in0.0 mm
09:05 PM 76.0°F24.4°C 53.7°F12.1°C 46% 2.0 mph SW3.2 kmh SW 16.0 mph25.7 kmh 210.26 in7120.2 mb 0.00 in0.0 mm 0.00 in0.0 mm 0.00 in0.0 mm
09:10 PM 76.0°F24.4°C 53.7°F12.1°C 46% 2.0 mph W3.2 kmh W 16.0 mph25.7 kmh 210.26 in7120.2 mb 0.00 in0.0 mm 0.00 in0.0 mm 0.00 in0.0 mm
09:15 PM 76.0°F24.4°C 53.7°F12.1°C 46% 1.0 mph NW1.6 kmh NW 16.0 mph25.7 kmh 210.27 in7120.6 mb 0.00 in0.0 mm 0.00 in0.0 mm 0.00 in0.0 mm
09:20 PM 76.0°F24.4°C 53.7°F12.1°C 46% 2.0 mph SW3.2 kmh SW 16.0 mph25.7 kmh 210.27 in7120.6 mb 0.00 in0.0 mm 0.00 in0.0 mm 0.00 in0.0 mm
09:25 PM 76.0°F24.4°C 54.3°F12.4°C 47% 4.0 mph SW6.4 kmh SW 16.0 mph25.7 kmh 210.26 in7120.2 mb 0.00 in0.0 mm 0.00 in0.0 mm 0.00 in0.0 mm
09:30 PM 75.0°F23.9°C 52.2°F11.2°C 45% 1.0 mph SW1.6 kmh SW 16.0 mph25.7 kmh 210.26 in7120.2 mb 0.00 in0.0 mm 0.00 in0.0 mm 0.00 in0.0 mm
09:35 PM 75.0°F23.9°C 52.8°F11.6°C 46% 1.0 mph SW1.6 kmh SW 16.0 mph25.7 kmh 210.27 in7120.6 mb 0.00 in0.0 mm 0.00 in0.0 mm 0.00 in0.0 mm
09:40 PM 75.0°F23.9°C 52.2°F11.2°C 45% Calm Calm 16.0 mph25.7 kmh 210.27 in7120.6 mb 0.00 in0.0 mm 0.00 in0.0 mm 0.00 in0.0 mm
09:45 PM 75.0°F23.9°C 52.8°F11.6°C 46% Calm Calm 16.0 mph25.7 kmh 210.28 in7120.9 mb 0.00 in0.0 mm 0.00 in0.0 mm 0.00 in0.0 mm
09:50 PM 75.0°F23.9°C 52.2°F11.2°C 45% Calm Calm 16.0 mph25.7 kmh 210.28 in7120.9 mb 0.00 in0.0 mm 0.00 in0.0 mm 0.00 in0.0 mm
09:55 PM 75.0°F23.9°C 52.8°F11.6°C 46% Calm Calm 16.0 mph25.7 kmh 210.28 in7120.9 mb 0.00 in0.0 mm 0.00 in0.0 mm 0.00 in0.0 mm
10:00 PM 74.0°F23.3°C 51.8°F11.0°C 46% Calm Calm 16.0 mph25.7 kmh 210.28 in7120.9 mb 0.00 in0.0 mm 0.00 in0.0 mm 0.00 in0.0 mm
10:05 PM 74.0°F23.3°C 51.8°F11.0°C 46% Calm Calm 16.0 mph25.7 kmh 210.28 in7120.9 mb 0.00 in0.0 mm 0.00 in0.0 mm 0.00 in0.0 mm
10:10 PM 73.0°F22.8°C 50.9°F10.5°C 46% Calm Calm 16.0 mph25.7 kmh 210.28 in7120.9 mb 0.00 in0.0 mm 0.00 in0.0 mm 0.00 in0.0 mm
10:15 PM 73.0°F22.8°C 51.5°F10.8°C 47% Calm Calm 16.0 mph25.7 kmh 210.29 in7121.2 mb 0.00 in0.0 mm 0.00 in0.0 mm 0.00 in0.0 mm
10:20 PM 72.0°F22.2°C 50.6°F10.3°C 47% Calm Calm 16.0 mph25.7 kmh 210.29 in7121.2 mb 0.00 in0.0 mm 0.00 in0.0 mm 0.00 in0.0 mm
10:25 PM 72.0°F22.2°C 50.6°F10.3°C 47% Calm Calm 16.0 mph25.7 kmh 210.30 in7121.6 mb 0.00 in0.0 mm 0.00 in0.0 mm 0.00 in0.0 mm
10:35 PM 72.0°F22.2°C 50.6°F10.3°C 47% 1.0 mph E1.6 kmh E 16.0 mph25.7 kmh 210.30 in7121.6 mb 0.00 in0.0 mm 0.00 in0.0 mm 0.00 in0.0 mm
10:40 PM 71.0°F21.7°C 49.7°F9.8°C 47% 1.0 mph E1.6 kmh E 16.0 mph25.7 kmh 210.30 in7121.6 mb 0.00 in0.0 mm 0.00 in0.0 mm 0.00 in0.0 mm
10:45 PM 71.0°F21.7°C 49.7°F9.8°C 47% Calm Calm 16.0 mph25.7 kmh 210.31 in7121.9 mb 0.00 in0.0 mm 0.00 in0.0 mm 0.00 in0.0 mm
10:50 PM 71.0°F21.7°C 49.7°F9.8°C 47% Calm Calm 16.0 mph25.7 kmh 210.31 in7121.9 mb 0.00 in0.0 mm 0.00 in0.0 mm 0.00 in0.0 mm
10:55 PM 71.0°F21.7°C 49.7°F9.8°C 47% Calm Calm 16.0 mph25.7 kmh 210.31 in7121.9 mb 0.00 in0.0 mm 0.00 in0.0 mm 0.00 in0.0 mm
11:00 PM 71.0°F21.7°C 49.7°F9.8°C 47% 1.0 mph ESE1.6 kmh ESE 16.0 mph25.7 kmh 210.31 in7121.9 mb 0.00 in0.0 mm 0.00 in0.0 mm 0.00 in0.0 mm
11:05 PM 71.0°F21.7°C 49.7°F9.8°C 47% Calm Calm 16.0 mph25.7 kmh 210.30 in7121.6 mb 0.00 in0.0 mm 0.00 in0.0 mm 0.00 in0.0 mm
11:10 PM 71.0°F21.7°C 49.7°F9.8°C 47% 1.0 mph E1.6 kmh E 16.0 mph25.7 kmh 210.30 in7121.6 mb 0.00 in0.0 mm 0.00 in0.0 mm 0.00 in0.0 mm
11:15 PM 71.0°F21.7°C 49.7°F9.8°C 47% Calm Calm 16.0 mph25.7 kmh 210.30 in7121.6 mb 0.00 in0.0 mm 0.00 in0.0 mm 0.00 in0.0 mm
11:20 PM 70.0°F21.1°C 48.8°F9.3°C 47% Calm Calm 16.0 mph25.7 kmh 210.30 in7121.6 mb 0.00 in0.0 mm 0.00 in0.0 mm 0.00 in0.0 mm
11:25 PM 70.0°F21.1°C 48.8°F9.3°C 47% Calm Calm 16.0 mph25.7 kmh 210.31 in7121.9 mb 0.00 in0.0 mm 0.00 in0.0 mm 0.00 in0.0 mm
11:30 PM 70.0°F21.1°C 48.8°F9.3°C 47% Calm Calm 16.0 mph25.7 kmh 210.31 in7121.9 mb 0.00 in0.0 mm 0.00 in0.0 mm 0.00 in0.0 mm
11:35 PM 70.0°F21.1°C 48.8°F9.3°C 47% Calm Calm 16.0 mph25.7 kmh 210.30 in7121.6 mb 0.00 in0.0 mm 0.00 in0.0 mm 0.00 in0.0 mm
11:40 PM 70.0°F21.1°C 48.8°F9.3°C 47% Calm Calm 16.0 mph25.7 kmh 210.30 in7121.6 mb 0.00 in0.0 mm 0.00 in0.0 mm 0.00 in0.0 mm
11:45 PM 70.0°F21.1°C 48.8°F9.3°C 47% Calm Calm 16.0 mph25.7 kmh 210.30 in7121.6 mb 0.00 in0.0 mm 0.00 in0.0 mm 0.00 in0.0 mm
11:50 PM 70.0°F21.1°C 48.8°F9.3°C 47% Calm Calm 16.0 mph25.7 kmh 210.30 in7121.6 mb 0.00 in0.0 mm 0.00 in0.0 mm 0.00 in0.0 mm
11:55 PM 70.0°F21.1°C 48.8°F9.3°C 47% Calm Calm 16.0 mph25.7 kmh 210.29 in7121.2 mb 0.00 in0.0 mm 0.00 in0.0 mm 0.00 in0.0 mm